sensor_id;sensor_type;location;lat;lon;timestamp;P1;durP1;ratioP1;P2;durP2;ratioP2
5559;SDS011;2803;47.916;8.074;2022-07-03T00:01:57;2.77;;;1.80;;
5559;SDS011;2803;47.916;8.074;2022-07-03T00:04:24;3.17;;;1.70;;
5559;SDS011;2803;47.916;8.074;2022-07-03T00:06:51;7.20;;;1.70;;
5559;SDS011;2803;47.916;8.074;2022-07-03T00:09:19;2.27;;;1.87;;
5559;SDS011;2803;47.916;8.074;2022-07-03T00:11:47;7.00;;;2.27;;
5559;SDS011;2803;47.916;8.074;2022-07-03T00:14:14;3.20;;;2.20;;
5559;SDS011;2803;47.916;8.074;2022-07-03T00:16:40;4.27;;;2.40;;
5559;SDS011;2803;47.916;8.074;2022-07-03T00:19:07;5.63;;;2.80;;
5559;SDS011;2803;47.916;8.074;2022-07-03T00:21:34;3.47;;;2.47;;
5559;SDS011;2803;47.916;8.074;2022-07-03T00:24:07;5.10;;;1.93;;
5559;SDS011;2803;47.916;8.074;2022-07-03T00:26:37;4.30;;;2.20;;
5559;SDS011;2803;47.916;8.074;2022-07-03T00:29:07;5.80;;;3.07;;
5559;SDS011;2803;47.916;8.074;2022-07-03T00:31:35;4.30;;;2.50;;
5559;SDS011;2803;47.916;8.074;2022-07-03T00:34:02;3.07;;;2.20;;
5559;SDS011;2803;47.916;8.074;2022-07-03T00:36:31;7.70;;;2.50;;
5559;SDS011;2803;47.916;8.074;2022-07-03T00:39:01;3.20;;;2.57;;
5559;SDS011;2803;47.916;8.074;2022-07-03T00:41:29;3.67;;;2.40;;
5559;SDS011;2803;47.916;8.074;2022-07-03T00:43:58;6.23;;;2.50;;
5559;SDS011;2803;47.916;8.074;2022-07-03T00:46:26;4.47;;;2.70;;
5559;SDS011;2803;47.916;8.074;2022-07-03T00:48:54;3.97;;;2.20;;
5559;SDS011;2803;47.916;8.074;2022-07-03T00:51:22;3.23;;;2.30;;
5559;SDS011;2803;47.916;8.074;2022-07-03T00:53:50;4.13;;;2.37;;
5559;SDS011;2803;47.916;8.074;2022-07-03T00:56:19;3.50;;;2.30;;
5559;SDS011;2803;47.916;8.074;2022-07-03T00:58:51;2.77;;;2.03;;
5559;SDS011;2803;47.916;8.074;2022-07-03T01:01:20;3.43;;;1.90;;
5559;SDS011;2803;47.916;8.074;2022-07-03T01:03:48;4.33;;;1.67;;
5559;SDS011;2803;47.916;8.074;2022-07-03T01:06:26;3.57;;;1.93;;
5559;SDS011;2803;47.916;8.074;2022-07-03T01:09:00;2.00;;;1.80;;
5559;SDS011;2803;47.916;8.074;2022-07-03T01:11:31;4.23;;;2.00;;
5559;SDS011;2803;47.916;8.074;2022-07-03T01:14:04;5.57;;;1.73;;
5559;SDS011;2803;47.916;8.074;2022-07-03T01:16:46;2.57;;;1.80;;
5559;SDS011;2803;47.916;8.074;2022-07-03T01:19:26;2.27;;;1.87;;
5559;SDS011;2803;47.916;8.074;2022-07-03T01:22:02;2.90;;;1.73;;
5559;SDS011;2803;47.916;8.074;2022-07-03T01:24:56;3.20;;;2.13;;
5559;SDS011;2803;47.916;8.074;2022-07-03T01:27:34;2.73;;;1.90;;
5559;SDS011;2803;47.916;8.074;2022-07-03T01:30:05;3.23;;;2.43;;
5559;SDS011;2803;47.916;8.074;2022-07-03T01:32:35;4.40;;;2.07;;
5559;SDS011;2803;47.916;8.074;2022-07-03T01:35:07;5.20;;;2.00;;
5559;SDS011;2803;47.916;8.074;2022-07-03T01:37:35;2.23;;;1.90;;
5559;SDS011;2803;47.916;8.074;2022-07-03T01:40:04;4.23;;;1.70;;
5559;SDS011;2803;47.916;8.074;2022-07-03T01:42:35;8.53;;;1.80;;
5559;SDS011;2803;47.916;8.074;2022-07-03T01:45:05;6.03;;;1.80;;
5559;SDS011;2803;47.916;8.074;2022-07-03T01:47:35;2.07;;;1.87;;
5559;SDS011;2803;47.916;8.074;2022-07-03T01:50:06;3.53;;;2.30;;
5559;SDS011;2803;47.916;8.074;2022-07-03T01:52:36;8.53;;;2.17;;
5559;SDS011;2803;47.916;8.074;2022-07-03T01:55:06;3.00;;;1.83;;
5559;SDS011;2803;47.916;8.074;2022-07-03T01:57:37;3.73;;;1.87;;
5559;SDS011;2803;47.916;8.074;2022-07-03T02:00:09;5.03;;;3.00;;
5559;SDS011;2803;47.916;8.074;2022-07-03T02:02:38;2.80;;;2.27;;
5559;SDS011;2803;47.916;8.074;2022-07-03T02:05:08;2.17;;;1.97;;
5559;SDS011;2803;47.916;8.074;2022-07-03T02:07:44;5.60;;;1.93;;
5559;SDS011;2803;47.916;8.074;2022-07-03T02:10:16;2.17;;;1.80;;
5559;SDS011;2803;47.916;8.074;2022-07-03T02:12:47;4.10;;;1.70;;
5559;SDS011;2803;47.916;8.074;2022-07-03T02:15:17;2.80;;;1.90;;
5559;SDS011;2803;47.916;8.074;2022-07-03T02:17:47;5.13;;;1.87;;
5559;SDS011;2803;47.916;8.074;2022-07-03T02:20:14;2.30;;;1.83;;
5559;SDS011;2803;47.916;8.074;2022-07-03T02:22:42;4.80;;;2.40;;
5559;SDS011;2803;47.916;8.074;2022-07-03T02:25:13;2.60;;;1.70;;
5559;SDS011;2803;47.916;8.074;2022-07-03T02:27:47;4.93;;;2.30;;
5559;SDS011;2803;47.916;8.074;2022-07-03T02:30:16;2.60;;;1.83;;
5559;SDS011;2803;47.916;8.074;2022-07-03T02:32:47;1.53;;;1.43;;
5559;SDS011;2803;47.916;8.074;2022-07-03T02:35:17;3.43;;;2.03;;
5559;SDS011;2803;47.916;8.074;2022-07-03T02:37:53;1.73;;;1.57;;
5559;SDS011;2803;47.916;8.074;2022-07-03T02:40:28;2.70;;;1.70;;
5559;SDS011;2803;47.916;8.074;2022-07-03T02:43:08;10.83;;;2.10;;
5559;SDS011;2803;47.916;8.074;2022-07-03T02:45:42;2.60;;;2.00;;
5559;SDS011;2803;47.916;8.074;2022-07-03T02:48:16;3.50;;;1.70;;
5559;SDS011;2803;47.916;8.074;2022-07-03T02:50:50;3.97;;;1.70;;
5559;SDS011;2803;47.916;8.074;2022-07-03T02:53:22;6.13;;;2.07;;
5559;SDS011;2803;47.916;8.074;2022-07-03T02:55:56;2.60;;;1.50;;
5559;SDS011;2803;47.916;8.074;2022-07-03T02:58:44;2.00;;;1.77;;
5559;SDS011;2803;47.916;8.074;2022-07-03T03:01:30;3.30;;;1.73;;
5559;SDS011;2803;47.916;8.074;2022-07-03T03:04:07;2.50;;;1.87;;
5559;SDS011;2803;47.916;8.074;2022-07-03T03:06:37;4.30;;;1.60;;
5559;SDS011;2803;47.916;8.074;2022-07-03T03:09:09;1.70;;;1.60;;
5559;SDS011;2803;47.916;8.074;2022-07-03T03:11:41;3.20;;;1.60;;
5559;SDS011;2803;47.916;8.074;2022-07-03T03:14:12;8.23;;;1.60;;
5559;SDS011;2803;47.916;8.074;2022-07-03T03:16:41;6.10;;;1.90;;
5559;SDS011;2803;47.916;8.074;2022-07-03T03:19:13;2.40;;;1.63;;
5559;SDS011;2803;47.916;8.074;2022-07-03T03:21:42;1.60;;;1.50;;
5559;SDS011;2803;47.916;8.074;2022-07-03T03:24:17;1.90;;;1.70;;
5559;SDS011;2803;47.916;8.074;2022-07-03T03:26:44;2.90;;;1.60;;
5559;SDS011;2803;47.916;8.074;2022-07-03T03:29:13;1.63;;;1.50;;
5559;SDS011;2803;47.916;8.074;2022-07-03T03:31:39;1.93;;;1.47;;
5559;SDS011;2803;47.916;8.074;2022-07-03T03:34:06;4.20;;;1.90;;
5559;SDS011;2803;47.916;8.074;2022-07-03T03:36:35;1.70;;;1.33;;
5559;SDS011;2803;47.916;8.074;2022-07-03T03:39:02;1.87;;;1.37;;
5559;SDS011;2803;47.916;8.074;2022-07-03T03:41:29;8.33;;;1.80;;
5559;SDS011;2803;47.916;8.074;2022-07-03T03:43:56;1.67;;;1.43;;
5559;SDS011;2803;47.916;8.074;2022-07-03T03:46:24;2.40;;;1.50;;
5559;SDS011;2803;47.916;8.074;2022-07-03T03:48:50;3.00;;;1.77;;
5559;SDS011;2803;47.916;8.074;2022-07-03T03:51:17;1.73;;;1.27;;
5559;SDS011;2803;47.916;8.074;2022-07-03T03:53:44;1.57;;;1.43;;
5559;SDS011;2803;47.916;8.074;2022-07-03T03:56:11;1.80;;;1.50;;
5559;SDS011;2803;47.916;8.074;2022-07-03T03:58:39;2.90;;;1.30;;
5559;SDS011;2803;47.916;8.074;2022-07-03T04:01:08;1.50;;;1.27;;
5559;SDS011;2803;47.916;8.074;2022-07-03T04:03:38;2.30;;;1.37;;
5559;SDS011;2803;47.916;8.074;2022-07-03T04:06:05;5.67;;;1.50;;
5559;SDS011;2803;47.916;8.074;2022-07-03T04:08:33;1.40;;;1.30;;
5559;SDS011;2803;47.916;8.074;2022-07-03T04:11:00;3.43;;;1.50;;
5559;SDS011;2803;47.916;8.074;2022-07-03T04:13:27;3.20;;;1.30;;
5559;SDS011;2803;47.916;8.074;2022-07-03T04:15:53;1.40;;;1.10;;
5559;SDS011;2803;47.916;8.074;2022-07-03T04:18:21;2.80;;;1.10;;
5559;SDS011;2803;47.916;8.074;2022-07-03T04:20:49;1.20;;;0.90;;
5559;SDS011;2803;47.916;8.074;2022-07-03T04:23:16;1.80;;;1.10;;
5559;SDS011;2803;47.916;8.074;2022-07-03T04:25:42;1.67;;;1.10;;
5559;SDS011;2803;47.916;8.074;2022-07-03T04:28:09;2.37;;;1.20;;
5559;SDS011;2803;47.916;8.074;2022-07-03T04:30:36;2.07;;;1.50;;
5559;SDS011;2803;47.916;8.074;2022-07-03T04:33:02;2.00;;;1.30;;
5559;SDS011;2803;47.916;8.074;2022-07-03T04:35:29;4.50;;;1.40;;
5559;SDS011;2803;47.916;8.074;2022-07-03T04:37:57;1.60;;;1.10;;
5559;SDS011;2803;47.916;8.074;2022-07-03T04:40:23;1.97;;;1.50;;
5559;SDS011;2803;47.916;8.074;2022-07-03T04:42:50;1.53;;;1.27;;
5559;SDS011;2803;47.916;8.074;2022-07-03T04:45:17;3.00;;;1.60;;
5559;SDS011;2803;47.916;8.074;2022-07-03T04:47:43;2.73;;;1.27;;
5559;SDS011;2803;47.916;8.074;2022-07-03T04:50:10;1.70;;;1.00;;
5559;SDS011;2803;47.916;8.074;2022-07-03T04:52:36;2.27;;;1.20;;
5559;SDS011;2803;47.916;8.074;2022-07-03T04:55:04;1.60;;;1.10;;
5559;SDS011;2803;47.916;8.074;2022-07-03T04:57:32;1.77;;;1.07;;
5559;SDS011;2803;47.916;8.074;2022-07-03T04:59:59;1.20;;;1.10;;
5559;SDS011;2803;47.916;8.074;2022-07-03T05:02:25;1.73;;;1.00;;
5559;SDS011;2803;47.916;8.074;2022-07-03T05:04:52;2.23;;;1.20;;
5559;SDS011;2803;47.916;8.074;2022-07-03T05:07:18;1.83;;;1.17;;
5559;SDS011;2803;47.916;8.074;2022-07-03T05:09:45;1.10;;;0.90;;
5559;SDS011;2803;47.916;8.074;2022-07-03T05:12:13;1.50;;;1.17;;
5559;SDS011;2803;47.916;8.074;2022-07-03T05:14:39;4.10;;;1.33;;
5559;SDS011;2803;47.916;8.074;2022-07-03T05:17:06;2.07;;;1.20;;
5559;SDS011;2803;47.916;8.074;2022-07-03T05:19:33;3.80;;;1.00;;
5559;SDS011;2803;47.916;8.074;2022-07-03T05:21:59;3.57;;;1.07;;
5559;SDS011;2803;47.916;8.074;2022-07-03T05:24:26;1.70;;;1.30;;
5559;SDS011;2803;47.916;8.074;2022-07-03T05:26:52;3.63;;;1.40;;
5559;SDS011;2803;47.916;8.074;2022-07-03T05:29:20;1.80;;;1.20;;
5559;SDS011;2803;47.916;8.074;2022-07-03T05:31:47;1.47;;;1.37;;
5559;SDS011;2803;47.916;8.074;2022-07-03T05:34:14;1.50;;;1.40;;
5559;SDS011;2803;47.916;8.074;2022-07-03T05:36:40;1.73;;;1.10;;
5559;SDS011;2803;47.916;8.074;2022-07-03T05:39:07;3.20;;;1.40;;
5559;SDS011;2803;47.916;8.074;2022-07-03T05:41:49;2.00;;;1.33;;
5559;SDS011;2803;47.916;8.074;2022-07-03T05:44:16;1.67;;;1.57;;
5559;SDS011;2803;47.916;8.074;2022-07-03T05:46:44;2.03;;;1.37;;
5559;SDS011;2803;47.916;8.074;2022-07-03T05:49:12;4.00;;;1.60;;
5559;SDS011;2803;47.916;8.074;2022-07-03T05:51:39;3.63;;;1.63;;
5559;SDS011;2803;47.916;8.074;2022-07-03T05:54:06;2.87;;;1.30;;
5559;SDS011;2803;47.916;8.074;2022-07-03T05:56:33;2.53;;;1.40;;
5559;SDS011;2803;47.916;8.074;2022-07-03T05:59:00;8.33;;;1.30;;
5559;SDS011;2803;47.916;8.074;2022-07-03T06:01:26;6.13;;;1.40;;
5559;SDS011;2803;47.916;8.074;2022-07-03T06:03:55;1.47;;;1.20;;
5559;SDS011;2803;47.916;8.074;2022-07-03T06:06:24;1.77;;;1.53;;
5559;SDS011;2803;47.916;8.074;2022-07-03T06:08:51;4.03;;;1.67;;
5559;SDS011;2803;47.916;8.074;2022-07-03T06:11:18;2.10;;;1.43;;
5559;SDS011;2803;47.916;8.074;2022-07-03T06:13:45;8.13;;;2.10;;
5559;SDS011;2803;47.916;8.074;2022-07-03T06:16:11;3.83;;;1.80;;
5559;SDS011;2803;47.916;8.074;2022-07-03T06:18:38;2.20;;;1.30;;
5559;SDS011;2803;47.916;8.074;2022-07-03T06:21:06;3.13;;;1.47;;
5559;SDS011;2803;47.916;8.074;2022-07-03T06:23:32;3.20;;;1.40;;
5559;SDS011;2803;47.916;8.074;2022-07-03T06:25:59;4.93;;;1.10;;
5559;SDS011;2803;47.916;8.074;2022-07-03T06:28:26;4.50;;;1.17;;
5559;SDS011;2803;47.916;8.074;2022-07-03T06:30:53;1.30;;;1.10;;
5559;SDS011;2803;47.916;8.074;2022-07-03T06:33:19;1.33;;;1.10;;
5559;SDS011;2803;47.916;8.074;2022-07-03T06:35:47;3.17;;;1.73;;
5559;SDS011;2803;47.916;8.074;2022-07-03T06:38:15;1.90;;;1.70;;
5559;SDS011;2803;47.916;8.074;2022-07-03T06:40:42;6.67;;;1.43;;
5559;SDS011;2803;47.916;8.074;2022-07-03T06:43:08;1.50;;;1.07;;
5559;SDS011;2803;47.916;8.074;2022-07-03T06:45:35;2.03;;;1.10;;
5559;SDS011;2803;47.916;8.074;2022-07-03T06:48:02;2.80;;;1.83;;
5559;SDS011;2803;47.916;8.074;2022-07-03T06:50:28;5.73;;;1.67;;
5559;SDS011;2803;47.916;8.074;2022-07-03T06:52:55;3.83;;;1.40;;
5559;SDS011;2803;47.916;8.074;2022-07-03T06:55:23;6.70;;;1.60;;
5559;SDS011;2803;47.916;8.074;2022-07-03T06:57:49;4.60;;;1.30;;
5559;SDS011;2803;47.916;8.074;2022-07-03T07:00:16;2.60;;;1.23;;
5559;SDS011;2803;47.916;8.074;2022-07-03T07:02:43;3.10;;;1.20;;
5559;SDS011;2803;47.916;8.074;2022-07-03T07:05:10;9.00;;;1.70;;
5559;SDS011;2803;47.916;8.074;2022-07-03T07:07:36;2.70;;;1.30;;
5559;SDS011;2803;47.916;8.074;2022-07-03T07:10:03;2.07;;;1.23;;
5559;SDS011;2803;47.916;8.074;2022-07-03T07:12:32;4.30;;;1.10;;
5559;SDS011;2803;47.916;8.074;2022-07-03T07:14:59;2.70;;;0.90;;
5559;SDS011;2803;47.916;8.074;2022-07-03T07:17:26;2.47;;;1.33;;
5559;SDS011;2803;47.916;8.074;2022-07-03T07:19:54;8.90;;;1.30;;
5559;SDS011;2803;47.916;8.074;2022-07-03T07:22:21;1.43;;;0.97;;
5559;SDS011;2803;47.916;8.074;2022-07-03T07:24:47;1.87;;;0.90;;
5559;SDS011;2803;47.916;8.074;2022-07-03T07:27:14;5.20;;;1.00;;
5559;SDS011;2803;47.916;8.074;2022-07-03T07:29:42;2.40;;;0.93;;
5559;SDS011;2803;47.916;8.074;2022-07-03T07:32:08;2.13;;;0.90;;
5559;SDS011;2803;47.916;8.074;2022-07-03T07:34:35;1.30;;;0.80;;
5559;SDS011;2803;47.916;8.074;2022-07-03T07:37:02;3.47;;;0.77;;
5559;SDS011;2803;47.916;8.074;2022-07-03T07:39:28;1.73;;;0.93;;
5559;SDS011;2803;47.916;8.074;2022-07-03T07:41:55;4.63;;;1.13;;
5559;SDS011;2803;47.916;8.074;2022-07-03T07:44:22;1.30;;;0.97;;
5559;SDS011;2803;47.916;8.074;2022-07-03T07:46:50;1.83;;;0.80;;
5559;SDS011;2803;47.916;8.074;2022-07-03T07:49:17;5.63;;;0.80;;
5559;SDS011;2803;47.916;8.074;2022-07-03T07:51:43;1.37;;;0.90;;
5559;SDS011;2803;47.916;8.074;2022-07-03T07:54:10;3.43;;;1.20;;
5559;SDS011;2803;47.916;8.074;2022-07-03T07:56:36;2.10;;;0.67;;
5559;SDS011;2803;47.916;8.074;2022-07-03T07:59:03;5.93;;;0.70;;
5559;SDS011;2803;47.916;8.074;2022-07-03T08:01:29;1.57;;;0.80;;
5559;SDS011;2803;47.916;8.074;2022-07-03T08:04:11;2.00;;;0.87;;
5559;SDS011;2803;47.916;8.074;2022-07-03T08:06:52;11.00;;;1.00;;
5559;SDS011;2803;47.916;8.074;2022-07-03T08:09:19;1.27;;;0.90;;
5559;SDS011;2803;47.916;8.074;2022-07-03T08:11:46;3.53;;;0.90;;
5559;SDS011;2803;47.916;8.074;2022-07-03T08:14:13;3.30;;;0.90;;
5559;SDS011;2803;47.916;8.074;2022-07-03T08:16:39;1.60;;;0.80;;
5559;SDS011;2803;47.916;8.074;2022-07-03T08:19:07;1.83;;;0.77;;
5559;SDS011;2803;47.916;8.074;2022-07-03T08:21:35;0.90;;;0.60;;
5559;SDS011;2803;47.916;8.074;2022-07-03T08:24:02;1.77;;;0.60;;
5559;SDS011;2803;47.916;8.074;2022-07-03T08:26:28;2.40;;;0.90;;
5559;SDS011;2803;47.916;8.074;2022-07-03T08:28:55;3.27;;;0.70;;
5559;SDS011;2803;47.916;8.074;2022-07-03T08:31:21;1.67;;;0.60;;
5559;SDS011;2803;47.916;8.074;2022-07-03T08:33:48;4.07;;;0.80;;
5559;SDS011;2803;47.916;8.074;2022-07-03T08:36:15;1.50;;;0.87;;
5559;SDS011;2803;47.916;8.074;2022-07-03T08:38:43;8.53;;;0.70;;
5559;SDS011;2803;47.916;8.074;2022-07-03T08:41:09;1.83;;;0.70;;
5559;SDS011;2803;47.916;8.074;2022-07-03T08:43:38;1.40;;;0.73;;
5559;SDS011;2803;47.916;8.074;2022-07-03T08:46:06;4.67;;;0.90;;
5559;SDS011;2803;47.916;8.074;2022-07-03T08:48:35;1.40;;;0.80;;
5559;SDS011;2803;47.916;8.074;2022-07-03T08:51:02;2.53;;;0.87;;
5559;SDS011;2803;47.916;8.074;2022-07-03T08:53:29;12.33;;;1.17;;
5559;SDS011;2803;47.916;8.074;2022-07-03T08:55:57;2.40;;;0.70;;
5559;SDS011;2803;47.916;8.074;2022-07-03T08:58:26;2.80;;;0.90;;
5559;SDS011;2803;47.916;8.074;2022-07-03T09:00:56;1.37;;;0.80;;
5559;SDS011;2803;47.916;8.074;2022-07-03T09:03:24;1.40;;;0.73;;
5559;SDS011;2803;47.916;8.074;2022-07-03T09:05:51;1.10;;;0.70;;
5559;SDS011;2803;47.916;8.074;2022-07-03T09:08:17;1.50;;;0.60;;
5559;SDS011;2803;47.916;8.074;2022-07-03T09:10:45;1.20;;;0.60;;
5559;SDS011;2803;47.916;8.074;2022-07-03T09:13:13;1.70;;;1.03;;
5559;SDS011;2803;47.916;8.074;2022-07-03T09:15:40;1.10;;;0.60;;
5559;SDS011;2803;47.916;8.074;2022-07-03T09:18:06;2.40;;;0.80;;
5559;SDS011;2803;47.916;8.074;2022-07-03T09:20:34;2.63;;;1.00;;
5559;SDS011;2803;47.916;8.074;2022-07-03T09:23:10;2.83;;;0.80;;
5559;SDS011;2803;47.916;8.074;2022-07-03T09:28:22;1.13;;;0.70;;
5559;SDS011;2803;47.916;8.074;2022-07-03T09:30:57;4.40;;;0.90;;
5559;SDS011;2803;47.916;8.074;2022-07-03T09:33:25;1.73;;;0.87;;
5559;SDS011;2803;47.916;8.074;2022-07-03T09:35:53;1.20;;;0.90;;
5559;SDS011;2803;47.916;8.074;2022-07-03T09:38:20;4.20;;;0.97;;
5559;SDS011;2803;47.916;8.074;2022-07-03T09:40:47;7.97;;;0.90;;
5559;SDS011;2803;47.916;8.074;2022-07-03T09:43:15;4.80;;;0.87;;
5559;SDS011;2803;47.916;8.074;2022-07-03T09:45:50;1.30;;;0.80;;
5559;SDS011;2803;47.916;8.074;2022-07-03T09:48:20;1.80;;;0.80;;
5559;SDS011;2803;47.916;8.074;2022-07-03T09:50:49;1.30;;;0.77;;
5559;SDS011;2803;47.916;8.074;2022-07-03T09:53:42;1.53;;;0.93;;
5559;SDS011;2803;47.916;8.074;2022-07-03T09:56:10;3.83;;;1.13;;
5559;SDS011;2803;47.916;8.074;2022-07-03T09:58:39;2.40;;;1.03;;
5559;SDS011;2803;47.916;8.074;2022-07-03T10:03:47;3.50;;;0.87;;
5559;SDS011;2803;47.916;8.074;2022-07-03T10:06:14;1.47;;;0.90;;
5559;SDS011;2803;47.916;8.074;2022-07-03T10:08:41;1.43;;;0.70;;
5559;SDS011;2803;47.916;8.074;2022-07-03T10:11:08;1.93;;;0.73;;
5559;SDS011;2803;47.916;8.074;2022-07-03T10:13:35;3.57;;;0.80;;
5559;SDS011;2803;47.916;8.074;2022-07-03T10:16:05;1.67;;;0.87;;
5559;SDS011;2803;47.916;8.074;2022-07-03T10:18:34;2.50;;;0.70;;
5559;SDS011;2803;47.916;8.074;2022-07-03T10:21:03;1.93;;;0.90;;
5559;SDS011;2803;47.916;8.074;2022-07-03T10:23:32;2.00;;;0.83;;
5559;SDS011;2803;47.916;8.074;2022-07-03T10:25:58;1.10;;;0.70;;
5559;SDS011;2803;47.916;8.074;2022-07-03T10:28:25;1.17;;;0.80;;
5559;SDS011;2803;47.916;8.074;2022-07-03T10:30:54;3.90;;;0.73;;
5559;SDS011;2803;47.916;8.074;2022-07-03T10:33:21;6.53;;;3.03;;
5559;SDS011;2803;47.916;8.074;2022-07-03T10:35:50;2.80;;;1.10;;
5559;SDS011;2803;47.916;8.074;2022-07-03T10:38:22;2.70;;;1.00;;
5559;SDS011;2803;47.916;8.074;2022-07-03T10:41:01;2.30;;;0.87;;
5559;SDS011;2803;47.916;8.074;2022-07-03T10:43:46;1.97;;;0.90;;
5559;SDS011;2803;47.916;8.074;2022-07-03T10:46:28;2.80;;;0.80;;
5559;SDS011;2803;47.916;8.074;2022-07-03T10:48:57;2.40;;;0.70;;
5559;SDS011;2803;47.916;8.074;2022-07-03T10:51:25;1.60;;;0.77;;
5559;SDS011;2803;47.916;8.074;2022-07-03T11:02:35;22.73;;;2.00;;
5559;SDS011;2803;47.916;8.074;2022-07-03T11:05:07;4.93;;;1.00;;
5559;SDS011;2803;47.916;8.074;2022-07-03T11:07:35;5.50;;;0.97;;
5559;SDS011;2803;47.916;8.074;2022-07-03T11:13:10;1.20;;;0.87;;
5559;SDS011;2803;47.916;8.074;2022-07-03T11:15:42;1.40;;;0.80;;
5559;SDS011;2803;47.916;8.074;2022-07-03T11:18:14;1.40;;;0.70;;
5559;SDS011;2803;47.916;8.074;2022-07-03T11:20:54;1.57;;;0.80;;
5559;SDS011;2803;47.916;8.074;2022-07-03T11:23:28;1.83;;;0.87;;
5559;SDS011;2803;47.916;8.074;2022-07-03T11:26:01;6.50;;;0.70;;
5559;SDS011;2803;47.916;8.074;2022-07-03T11:28:48;3.63;;;0.80;;
5559;SDS011;2803;47.916;8.074;2022-07-03T11:31:16;1.87;;;0.90;;
5559;SDS011;2803;47.916;8.074;2022-07-03T11:33:46;1.10;;;0.70;;
5559;SDS011;2803;47.916;8.074;2022-07-03T11:36:22;2.53;;;0.90;;
5559;SDS011;2803;47.916;8.074;2022-07-03T11:38:53;1.80;;;0.90;;
5559;SDS011;2803;47.916;8.074;2022-07-03T11:41:30;1.93;;;1.00;;
5559;SDS011;2803;47.916;8.074;2022-07-03T11:44:08;1.70;;;0.70;;
5559;SDS011;2803;47.916;8.074;2022-07-03T11:46:36;2.47;;;1.00;;
5559;SDS011;2803;47.916;8.074;2022-07-03T11:49:05;2.43;;;0.70;;
5559;SDS011;2803;47.916;8.074;2022-07-03T11:51:32;3.07;;;0.73;;
5559;SDS011;2803;47.916;8.074;2022-07-03T11:53:59;1.30;;;0.67;;
5559;SDS011;2803;47.916;8.074;2022-07-03T11:56:26;1.23;;;0.77;;
5559;SDS011;2803;47.916;8.074;2022-07-03T11:58:54;2.45;;;0.60;;
5559;SDS011;2803;47.916;8.074;2022-07-03T12:01:30;3.80;;;0.80;;
5559;SDS011;2803;47.916;8.074;2022-07-03T12:04:07;1.80;;;0.85;;
5559;SDS011;2803;47.916;8.074;2022-07-03T12:06:35;2.67;;;1.13;;
5559;SDS011;2803;47.916;8.074;2022-07-03T12:09:11;1.58;;;0.95;;
5559;SDS011;2803;47.916;8.074;2022-07-03T12:11:39;1.05;;;0.70;;
5559;SDS011;2803;47.916;8.074;2022-07-03T12:14:05;1.40;;;0.83;;
5559;SDS011;2803;47.916;8.074;2022-07-03T12:16:32;1.53;;;0.80;;
5559;SDS011;2803;47.916;8.074;2022-07-03T12:19:03;3.17;;;0.80;;
5559;SDS011;2803;47.916;8.074;2022-07-03T12:21:36;3.67;;;0.95;;
5559;SDS011;2803;47.916;8.074;2022-07-03T12:26:37;1.40;;;0.73;;
5559;SDS011;2803;47.916;8.074;2022-07-03T12:29:05;4.82;;;0.70;;
5559;SDS011;2803;47.916;8.074;2022-07-03T12:31:33;4.00;;;1.02;;
5559;SDS011;2803;47.916;8.074;2022-07-03T12:34:00;1.30;;;0.80;;
5559;SDS011;2803;47.916;8.074;2022-07-03T12:36:28;2.10;;;0.90;;
5559;SDS011;2803;47.916;8.074;2022-07-03T12:38:57;1.10;;;0.67;;
5559;SDS011;2803;47.916;8.074;2022-07-03T12:41:25;2.20;;;0.82;;
5559;SDS011;2803;47.916;8.074;2022-07-03T12:43:52;3.47;;;1.10;;
5559;SDS011;2803;47.916;8.074;2022-07-03T12:46:20;20.70;;;1.60;;
5559;SDS011;2803;47.916;8.074;2022-07-03T12:48:49;1.40;;;1.10;;
5559;SDS011;2803;47.916;8.074;2022-07-03T12:54:08;2.35;;;0.98;;
5559;SDS011;2803;47.916;8.074;2022-07-03T12:56:37;5.22;;;0.82;;
5559;SDS011;2803;47.916;8.074;2022-07-03T12:59:04;2.72;;;0.90;;
5559;SDS011;2803;47.916;8.074;2022-07-03T13:01:45;2.15;;;0.88;;
5559;SDS011;2803;47.916;8.074;2022-07-03T13:04:29;1.42;;;0.90;;
5559;SDS011;2803;47.916;8.074;2022-07-03T13:06:59;4.72;;;1.42;;
5559;SDS011;2803;47.916;8.074;2022-07-03T13:09:28;4.10;;;1.27;;
5559;SDS011;2803;47.916;8.074;2022-07-03T13:11:54;1.33;;;0.90;;
5559;SDS011;2803;47.916;8.074;2022-07-03T13:14:21;4.03;;;1.05;;
5559;SDS011;2803;47.916;8.074;2022-07-03T13:16:49;2.55;;;0.80;;
5559;SDS011;2803;47.916;8.074;2022-07-03T13:19:18;2.50;;;1.27;;
5559;SDS011;2803;47.916;8.074;2022-07-03T13:21:46;2.78;;;1.05;;
5559;SDS011;2803;47.916;8.074;2022-07-03T13:24:14;1.60;;;0.70;;
5559;SDS011;2803;47.916;8.074;2022-07-03T13:26:42;3.05;;;1.17;;
5559;SDS011;2803;47.916;8.074;2022-07-03T13:29:10;4.22;;;0.93;;
5559;SDS011;2803;47.916;8.074;2022-07-03T13:31:37;1.92;;;0.95;;
5559;SDS011;2803;47.916;8.074;2022-07-03T13:34:03;1.25;;;0.90;;
5559;SDS011;2803;47.916;8.074;2022-07-03T13:36:30;1.38;;;0.93;;
5559;SDS011;2803;47.916;8.074;2022-07-03T13:38:57;8.45;;;0.98;;
5559;SDS011;2803;47.916;8.074;2022-07-03T13:41:25;3.30;;;0.90;;
5559;SDS011;2803;47.916;8.074;2022-07-03T13:43:54;8.93;;;0.90;;
5559;SDS011;2803;47.916;8.074;2022-07-03T13:46:21;1.70;;;1.23;;
5559;SDS011;2803;47.916;8.074;2022-07-03T13:48:49;6.00;;;1.42;;
5559;SDS011;2803;47.916;8.074;2022-07-03T13:51:16;1.30;;;0.90;;
5559;SDS011;2803;47.916;8.074;2022-07-03T13:53:43;1.67;;;1.08;;
5559;SDS011;2803;47.916;8.074;2022-07-03T13:56:09;3.35;;;0.90;;
5559;SDS011;2803;47.916;8.074;2022-07-03T13:58:36;3.25;;;0.90;;
5559;SDS011;2803;47.916;8.074;2022-07-03T14:01:04;2.35;;;1.10;;
5559;SDS011;2803;47.916;8.074;2022-07-03T14:03:31;2.60;;;1.00;;
5559;SDS011;2803;47.916;8.074;2022-07-03T14:05:58;1.42;;;0.90;;
5559;SDS011;2803;47.916;8.074;2022-07-03T14:08:24;2.75;;;1.00;;
5559;SDS011;2803;47.916;8.074;2022-07-03T14:10:51;3.17;;;0.80;;
5559;SDS011;2803;47.916;8.074;2022-07-03T14:13:17;1.73;;;1.00;;
5559;SDS011;2803;47.916;8.074;2022-07-03T14:15:44;4.45;;;1.35;;
5559;SDS011;2803;47.916;8.074;2022-07-03T14:18:12;1.77;;;1.05;;
5559;SDS011;2803;47.916;8.074;2022-07-03T14:20:39;1.52;;;0.80;;
5559;SDS011;2803;47.916;8.074;2022-07-03T14:23:05;1.30;;;0.80;;
5559;SDS011;2803;47.916;8.074;2022-07-03T14:25:32;1.85;;;0.95;;
5559;SDS011;2803;47.916;8.074;2022-07-03T14:27:58;2.53;;;1.05;;
5559;SDS011;2803;47.916;8.074;2022-07-03T14:30:39;1.23;;;1.00;;
5559;SDS011;2803;47.916;8.074;2022-07-03T14:33:21;8.05;;;1.60;;
5559;SDS011;2803;47.916;8.074;2022-07-03T14:35:48;1.80;;;1.40;;
5559;SDS011;2803;47.916;8.074;2022-07-03T14:38:14;5.77;;;1.10;;
5559;SDS011;2803;47.916;8.074;2022-07-03T14:40:41;5.90;;;2.17;;
5559;SDS011;2803;47.916;8.074;2022-07-03T14:43:07;3.00;;;0.90;;
5559;SDS011;2803;47.916;8.074;2022-07-03T14:45:34;2.80;;;1.50;;
5559;SDS011;2803;47.916;8.074;2022-07-03T14:48:00;3.13;;;1.27;;
5559;SDS011;2803;47.916;8.074;2022-07-03T14:50:28;3.03;;;1.50;;
5559;SDS011;2803;47.916;8.074;2022-07-03T14:52:55;2.87;;;2.57;;
5559;SDS011;2803;47.916;8.074;2022-07-03T14:55:22;8.10;;;1.23;;
5559;SDS011;2803;47.916;8.074;2022-07-03T14:57:59;3.13;;;1.20;;
5559;SDS011;2803;47.916;8.074;2022-07-03T15:00:30;3.00;;;1.17;;
5559;SDS011;2803;47.916;8.074;2022-07-03T15:03:03;7.47;;;4.33;;
5559;SDS011;2803;47.916;8.074;2022-07-03T15:05:32;3.00;;;1.50;;
5559;SDS011;2803;47.916;8.074;2022-07-03T15:08:03;1.50;;;0.93;;
5559;SDS011;2803;47.916;8.074;2022-07-03T15:10:35;2.80;;;1.20;;
5559;SDS011;2803;47.916;8.074;2022-07-03T15:13:04;3.53;;;2.20;;
5559;SDS011;2803;47.916;8.074;2022-07-03T15:15:32;1.93;;;1.20;;
5559;SDS011;2803;47.916;8.074;2022-07-03T15:18:01;2.40;;;0.97;;
5559;SDS011;2803;47.916;8.074;2022-07-03T15:20:30;3.07;;;1.27;;
5559;SDS011;2803;47.916;8.074;2022-07-03T15:22:59;4.80;;;1.10;;
5559;SDS011;2803;47.916;8.074;2022-07-03T15:25:28;7.73;;;3.10;;
5559;SDS011;2803;47.916;8.074;2022-07-03T15:27:55;6.50;;;1.53;;
5559;SDS011;2803;47.916;8.074;2022-07-03T15:30:23;12.20;;;2.43;;
5559;SDS011;2803;47.916;8.074;2022-07-03T15:32:51;5.50;;;1.20;;
5559;SDS011;2803;47.916;8.074;2022-07-03T15:35:19;3.20;;;1.50;;
5559;SDS011;2803;47.916;8.074;2022-07-03T15:37:54;2.77;;;1.40;;
5559;SDS011;2803;47.916;8.074;2022-07-03T15:40:32;6.20;;;1.40;;
5559;SDS011;2803;47.916;8.074;2022-07-03T15:43:06;4.50;;;1.23;;
5559;SDS011;2803;47.916;8.074;2022-07-03T15:45:44;1.30;;;0.90;;
5559;SDS011;2803;47.916;8.074;2022-07-03T15:48:23;4.13;;;1.20;;
5559;SDS011;2803;47.916;8.074;2022-07-03T15:51:03;4.30;;;1.37;;